Time;durP1;ratioP1;P1;durP2;ratioP2;P2;SDS_P1;SDS_P2;PMS_P1;PMS_P2;Temp;Humidity;BMP_temperature;BMP_pressure;BME280_temperature;BME280_humidity;BME280_pressure;Samples;Min_cycle;Max_cycle;Signal;HPM_P1;HPM_P2
2020/12/06 00:01:04;;;;;;;19.50;13.63;;;2.70;99.90;;;;;;5014872;28;20609;-75
2020/12/06 00:03:30;;;;;;;21.50;15.00;;;2.70;99.90;;;;;;5014752;28;20259;-75
2020/12/06 00:05:56;;;;;;;20.77;13.88;;;2.80;99.90;;;;;;5013234;28;20712;-75
2020/12/06 00:08:21;;;;;;;23.57;15.00;;;2.70;99.90;;;;;;5014416;28;20201;-75
2020/12/06 00:10:47;;;;;;;18.47;14.17;;;2.70;99.90;;;;;;5014584;28;20544;-75
2020/12/06 00:13:13;;;;;;;22.53;15.20;;;2.70;99.90;;;;;;5014543;28;20185;-75
2020/12/06 00:15:38;;;;;;;22.53;15.87;;;2.70;99.90;;;;;;5014182;28;20207;-75
2020/12/06 00:18:04;;;;;;;20.07;15.00;;;2.70;99.90;;;;;;5014389;28;20176;-76
2020/12/06 00:20:30;;;;;;;18.00;13.63;;;2.70;99.90;;;;;;5014349;28;20331;-75
2020/12/06 00:22:56;;;;;;;21.13;14.80;;;2.60;99.90;;;;;;5014401;28;20224;-75
2020/12/06 00:25:22;;;;;;;21.07;15.40;;;2.60;99.90;;;;;;5013868;28;20216;-75
2020/12/06 00:27:47;;;;;;;23.00;16.10;;;2.60;99.90;;;;;;5014348;28;20698;-75
2020/12/06 00:30:13;;;;;;;23.63;14.30;;;2.50;99.90;;;;;;5014040;28;20686;-75
2020/12/06 00:32:39;;;;;;;22.87;15.90;;;2.50;99.90;;;;;;5014048;28;20181;-75
2020/12/06 00:35:08;;;;;;;20.00;15.20;;;2.50;99.90;;;;;;5013838;28;20240;-75
2020/12/06 00:37:36;;;;;;;18.63;13.38;;;2.50;99.90;;;;;;5014193;28;20545;-75
2020/12/06 00:40:04;;;;;;;21.40;14.25;;;2.50;99.90;;;;;;5013958;28;20185;-75
2020/12/06 00:42:30;;;;;;;22.60;15.38;;;2.50;99.90;;;;;;5013830;28;20175;-75
2020/12/06 00:44:55;;;;;;;21.03;15.43;;;2.40;99.90;;;;;;5013561;28;20259;-75
2020/12/06 00:47:21;;;;;;;21.80;14.40;;;2.40;99.90;;;;;;5013900;28;20175;-75
2020/12/06 00:49:47;;;;;;;19.60;13.83;;;2.40;99.90;;;;;;5013907;28;20194;-75
2020/12/06 00:52:12;;;;;;;22.90;15.70;;;2.50;99.90;;;;;;5013849;28;20184;-76
2020/12/06 00:54:38;;;;;;;23.33;16.77;;;2.50;99.90;;;;;;5012217;28;20658;-75
2020/12/06 00:57:04;;;;;;;22.30;15.87;;;2.50;99.90;;;;;;5014058;28;20779;-75
2020/12/06 00:59:29;;;;;;;24.27;16.40;;;2.50;99.90;;;;;;5014003;28;20186;-75
2020/12/06 01:01:55;;;;;;;21.40;15.27;;;2.40;99.90;;;;;;5014841;28;20208;-75
2020/12/06 01:04:21;;;;;;;23.60;15.50;;;2.40;99.90;;;;;;5013924;28;20227;-75
2020/12/06 01:06:46;;;;;;;21.83;14.53;;;2.40;99.90;;;;;;5014258;28;20174;-75
2020/12/06 01:09:12;;;;;;;24.70;16.20;;;2.40;99.90;;;;;;5013649;28;20176;-75
2020/12/06 01:11:38;;;;;;;24.33;15.47;;;2.50;99.90;;;;;;5013372;28;20185;-75
2020/12/06 01:14:03;;;;;;;22.17;16.60;;;2.50;99.90;;;;;;5013237;28;20201;-76
2020/12/06 01:16:29;;;;;;;19.37;14.80;;;2.40;99.90;;;;;;5013536;28;20727;-75
2020/12/06 01:18:54;;;;;;;23.73;15.13;;;2.40;99.90;;;;;;5013701;28;20171;-75
2020/12/06 01:21:20;;;;;;;22.67;15.30;;;2.40;99.90;;;;;;5013725;28;20292;-75
2020/12/06 01:23:45;;;;;;;22.10;15.03;;;2.40;99.90;;;;;;5011954;28;20181;-75
2020/12/06 01:26:12;;;;;;;23.90;16.17;;;2.40;99.90;;;;;;5013318;28;20521;-75
2020/12/06 01:28:38;;;;;;;23.08;14.90;;;2.40;99.90;;;;;;5013328;28;20187;-76
2020/12/06 01:31:06;;;;;;;18.40;14.00;;;2.50;99.90;;;;;;5013412;28;20182;-74
2020/12/06 01:33:32;;;;;;;21.98;14.77;;;2.40;99.90;;;;;;5013338;28;20172;-74
2020/12/06 01:35:57;;;;;;;20.53;14.07;;;2.40;99.90;;;;;;5013127;28;20275;-75
2020/12/06 01:38:23;;;;;;;19.97;13.53;;;2.50;99.90;;;;;;5013361;28;20197;-75
2020/12/06 01:40:49;;;;;;;26.43;17.07;;;2.40;99.90;;;;;;5013081;28;20205;-76
2020/12/06 01:43:14;;;;;;;19.00;14.07;;;2.40;99.90;;;;;;5013278;28;20231;-74
2020/12/06 01:45:40;;;;;;;20.10;13.63;;;2.40;99.90;;;;;;5012760;28;20205;-75
2020/12/06 01:48:09;;;;;;;20.50;14.70;;;2.40;99.90;;;;;;5013262;28;20183;-75
2020/12/06 01:50:39;;;;;;;20.02;14.73;;;2.30;99.90;;;;;;5013179;28;20420;-75
2020/12/06 01:53:07;;;;;;;18.10;13.73;;;2.30;99.90;;;;;;5013038;28;20206;-75
2020/12/06 01:55:33;;;;;;;20.23;14.77;;;2.30;99.90;;;;;;5012781;28;20293;-75
2020/12/06 01:58:07;;;;;;;21.63;14.70;;;2.20;99.90;;;;;;5013123;28;20186;-75
2020/12/06 02:00:34;;;;;;;23.73;15.73;;;2.20;99.90;;;;;;5013009;28;20197;-74
2020/12/06 02:03:00;;;;;;;21.63;13.98;;;2.40;99.90;;;;;;5013045;28;20180;-74
2020/12/06 02:05:28;;;;;;;22.50;14.07;;;2.30;99.90;;;;;;5011298;28;20201;-73
2020/12/06 02:07:57;;;;;;;23.02;14.43;;;2.20;99.90;;;;;;5013205;28;20180;-73
2020/12/06 02:10:25;;;;;;;20.17;14.25;;;2.10;99.90;;;;;;5013242;28;20576;-74
2020/12/06 02:12:52;;;;;;;25.67;14.75;;;2.10;99.90;;;;;;5013182;28;20176;-74
2020/12/06 02:15:18;;;;;;;20.88;14.55;;;2.20;99.90;;;;;;5012618;28;20672;-74
2020/12/06 02:17:43;;;;;;;22.07;14.60;;;2.10;99.90;;;;;;5016801;28;20179;-73
2020/12/06 02:20:09;;;;;;;23.07;14.97;;;2.00;99.90;;;;;;5016732;28;20682;-74
2020/12/06 02:22:35;;;;;;;21.60;14.03;;;2.00;99.90;;;;;;5016747;28;20180;-74
2020/12/06 02:25:00;;;;;;;20.80;14.57;;;2.00;99.90;;;;;;5016171;28;20240;-74
2020/12/06 02:27:26;;;;;;;22.80;15.83;;;2.00;99.90;;;;;;5016394;28;20172;-73
2020/12/06 02:29:52;;;;;;;21.23;14.10;;;2.00;99.90;;;;;;5016479;28;20181;-73
2020/12/06 02:32:17;;;;;;;22.30;14.43;;;2.00;99.90;;;;;;5016593;28;20259;-74
2020/12/06 02:34:43;;;;;;;23.10;14.60;;;2.00;99.90;;;;;;5016067;28;20189;-73
2020/12/06 02:37:08;;;;;;;20.93;15.20;;;2.00;99.90;;;;;;5016479;28;20185;-73
2020/12/06 02:39:34;;;;;;;21.67;14.87;;;2.10;99.90;;;;;;5016186;28;20235;-73
2020/12/06 02:42:00;;;;;;;19.00;12.50;;;2.10;99.90;;;;;;5016250;28;20220;-74
2020/12/06 02:44:25;;;;;;;22.40;14.37;;;2.10;99.90;;;;;;5015765;28;20197;-74
2020/12/06 02:46:51;;;;;;;20.67;13.50;;;2.10;99.90;;;;;;5016167;28;20223;-74
2020/12/06 02:49:16;;;;;;;18.87;13.23;;;2.10;99.90;;;;;;5016070;28;20178;-75
2020/12/06 02:51:42;;;;;;;23.37;15.27;;;2.10;99.90;;;;;;5015981;28;20643;-74
2020/12/06 02:54:08;;;;;;;17.97;13.10;;;2.10;99.90;;;;;;5015651;28;20201;-73
2020/12/06 02:56:33;;;;;;;19.17;13.47;;;2.10;99.90;;;;;;5016020;28;20641;-74
2020/12/06 02:58:59;;;;;;;18.30;13.13;;;2.10;99.90;;;;;;5016052;28;20517;-74
2020/12/06 03:01:31;;;;;;;19.63;13.60;;;2.10;99.90;;;;;;5015761;28;20565;-74
2020/12/06 03:03:57;;;;;;;23.48;14.65;;;2.10;99.90;;;;;;5015438;28;20190;-74
2020/12/06 03:06:23;;;;;;;18.45;12.88;;;2.10;99.90;;;;;;5014732;28;20487;-74
2020/12/06 03:08:48;;;;;;;21.50;14.00;;;2.20;99.90;;;;;;5015780;28;20184;-74
2020/12/06 03:11:14;;;;;;;18.70;13.23;;;2.20;99.90;;;;;;5015711;28;20789;-74
2020/12/06 03:13:40;;;;;;;16.77;13.10;;;2.20;99.90;;;;;;5015317;28;20201;-74
2020/12/06 03:16:06;;;;;;;19.43;12.67;;;2.30;99.90;;;;;;5015594;28;20411;-74
2020/12/06 03:18:32;;;;;;;20.73;13.60;;;2.20;99.90;;;;;;5015497;28;20173;-74
2020/12/06 03:20:58;;;;;;;20.10;13.07;;;2.20;99.90;;;;;;5014338;28;20956;-74
2020/12/06 03:23:24;;;;;;;20.10;13.73;;;2.20;99.90;;;;;;5015642;28;20239;-75
2020/12/06 03:25:49;;;;;;;19.50;12.80;;;2.30;99.90;;;;;;5015138;28;20196;-74
2020/12/06 03:28:15;;;;;;;20.13;12.50;;;2.30;99.90;;;;;;5014630;28;20537;-74
2020/12/06 03:30:41;;;;;;;19.73;13.00;;;2.30;99.90;;;;;;5015202;28;20230;-74
2020/12/06 03:33:07;;;;;;;23.53;14.50;;;2.40;99.90;;;;;;5015330;28;20463;-74
2020/12/06 03:35:32;;;;;;;20.67;13.33;;;2.50;99.90;;;;;;5013574;28;20448;-74
2020/12/06 03:37:58;;;;;;;17.13;12.37;;;2.50;99.90;;;;;;5015144;28;20251;-74
2020/12/06 03:40:24;;;;;;;21.93;12.93;;;2.60;99.90;;;;;;5015118;28;20202;-74
2020/12/06 03:42:50;;;;;;;18.23;12.30;;;2.70;99.90;;;;;;5013895;28;20237;-74
2020/12/06 03:45:16;;;;;;;17.70;12.88;;;2.70;99.90;;;;;;5014719;28;20598;-74
2020/12/06 03:47:42;;;;;;;19.95;14.05;;;2.80;99.90;;;;;;5014949;28;20175;-74
2020/12/06 03:50:08;;;;;;;22.63;14.23;;;2.80;99.90;;;;;;5014929;28;20177;-74
2020/12/06 03:52:34;;;;;;;17.80;12.60;;;2.90;99.90;;;;;;5014796;28;20412;-74
2020/12/06 03:54:59;;;;;;;21.90;13.90;;;2.90;99.90;;;;;;5014510;28;20634;-74
2020/12/06 03:57:25;;;;;;;20.17;14.00;;;2.90;99.90;;;;;;5014775;28;20173;-74
2020/12/06 03:59:50;;;;;;;16.43;12.40;;;2.90;99.90;;;;;;5014662;28;20166;-73
2020/12/06 04:02:17;;;;;;;17.10;13.00;;;2.90;99.90;;;;;;5014698;28;20655;-75
2020/12/06 04:04:43;;;;;;;22.15;14.52;;;2.90;99.90;;;;;;5014455;28;20542;-74
2020/12/06 04:07:09;;;;;;;17.37;13.13;;;2.80;99.90;;;;;;5014809;28;20181;-74
2020/12/06 04:09:34;;;;;;;19.40;13.13;;;2.80;99.90;;;;;;5014620;28;20424;-74
2020/12/06 04:12:00;;;;;;;19.87;14.00;;;2.80;99.90;;;;;;5014460;28;20409;-74
2020/12/06 04:14:25;;;;;;;23.63;14.90;;;2.80;99.90;;;;;;5014357;28;20194;-73
2020/12/06 04:16:51;;;;;;;23.23;13.70;;;2.90;99.90;;;;;;5014493;28;20181;-74
2020/12/06 04:19:17;;;;;;;17.87;13.90;;;2.80;99.90;;;;;;5014654;28;20169;-75
2020/12/06 04:21:42;;;;;;;21.53;14.70;;;2.80;99.90;;;;;;5014459;28;20670;-74
2020/12/06 04:24:08;;;;;;;18.77;14.10;;;2.80;99.90;;;;;;5014126;28;20686;-74
2020/12/06 04:26:34;;;;;;;19.03;13.37;;;2.80;99.90;;;;;;5014389;28;20178;-74
2020/12/06 04:28:59;;;;;;;20.37;14.77;;;2.70;99.90;;;;;;5014299;28;20166;-74
2020/12/06 04:31:25;;;;;;;18.97;13.80;;;2.70;99.90;;;;;;5014206;28;20179;-74
2020/12/06 04:33:51;;;;;;;23.73;14.97;;;2.70;99.90;;;;;;5013873;28;20232;-73
2020/12/06 04:36:16;;;;;;;19.90;13.17;;;2.70;99.90;;;;;;5014098;28;20217;-74
2020/12/06 04:38:42;;;;;;;20.57;13.67;;;2.70;99.90;;;;;;5014335;28;20208;-74
2020/12/06 04:41:08;;;;;;;20.83;15.00;;;2.80;99.90;;;;;;5014064;28;20228;-73
2020/12/06 04:43:34;;;;;;;19.00;15.00;;;2.90;99.90;;;;;;5014077;28;20199;-73
2020/12/06 04:46:00;;;;;;;19.77;14.02;;;2.80;99.90;;;;;;5013504;28;20962;-73
2020/12/06 04:48:44;;;;;;;18.87;12.67;;;2.70;99.90;;;;;;5013865;28;20185;-74
2020/12/06 04:51:13;;;;;;;19.50;13.88;;;2.70;99.90;;;;;;5012729;28;20189;-73
2020/12/06 04:53:59;;;;;;;20.13;13.10;;;2.60;99.90;;;;;;5013479;28;20666;-73
2020/12/06 04:56:27;;;;;;;18.02;11.93;;;2.70;99.90;;;;;;5013783;28;20204;-73
2020/12/06 04:58:56;;;;;;;20.20;13.15;;;2.70;99.90;;;;;;5014344;28;20178;-74
2020/12/06 05:01:23;;;;;;;20.02;14.18;;;2.70;99.90;;;;;;5015084;28;20211;-73
2020/12/06 05:03:57;;;;;;;18.20;13.07;;;2.70;99.90;;;;;;5014581;28;20228;-74
2020/12/06 05:06:24;;;;;;;17.35;12.23;;;2.60;99.90;;;;;;5013538;28;20711;-74
2020/12/06 05:08:51;;;;;;;20.95;13.05;;;2.60;99.90;;;;;;5013719;28;20178;-74
2020/12/06 05:11:17;;;;;;;18.08;12.43;;;2.60;99.90;;;;;;5013745;28;20224;-75
2020/12/06 05:13:43;;;;;;;17.23;11.82;;;2.70;99.90;;;;;;5013401;28;20567;-74
2020/12/06 05:16:11;;;;;;;16.83;12.50;;;2.70;99.90;;;;;;5013725;28;20181;-74
2020/12/06 05:18:36;;;;;;;19.15;13.13;;;2.60;99.90;;;;;;5012248;28;20544;-74
2020/12/06 05:21:02;;;;;;;19.20;12.20;;;2.60;99.90;;;;;;5013514;28;20203;-74
2020/12/06 05:23:28;;;;;;;18.57;13.67;;;2.70;99.90;;;;;;5013483;28;20424;-74
2020/12/06 05:25:54;;;;;;;23.38;13.20;;;2.60;99.90;;;;;;5013267;28;20539;-75
2020/12/06 05:28:21;;;;;;;20.47;12.20;;;2.60;99.90;;;;;;5013799;28;20228;-75
2020/12/06 05:30:48;;;;;;;17.75;12.55;;;2.70;99.90;;;;;;5013522;28;20771;-75
2020/12/06 05:33:16;;;;;;;18.90;12.90;;;2.70;99.90;;;;;;5013651;28;20550;-75
2020/12/06 05:35:42;;;;;;;20.85;13.30;;;2.60;99.90;;;;;;5013071;28;20611;-75
2020/12/06 05:38:08;;;;;;;18.35;11.63;;;2.60;99.90;;;;;;5013390;28;20185;-75
2020/12/06 05:40:44;;;;;;;17.47;12.27;;;2.60;99.90;;;;;;5013147;28;20296;-75
2020/12/06 05:43:09;;;;;;;18.80;12.95;;;2.60;99.90;;;;;;5013428;28;20242;-75
2020/12/06 05:45:35;;;;;;;18.37;12.27;;;2.50;99.90;;;;;;5012758;28;20213;-75
2020/12/06 05:48:01;;;;;;;18.90;13.20;;;2.50;99.90;;;;;;5013224;28;20177;-75
2020/12/06 05:50:28;;;;;;;22.42;14.35;;;2.50;99.90;;;;;;5013573;28;20574;-75
2020/12/06 05:52:56;;;;;;;18.52;13.65;;;2.50;99.90;;;;;;5017038;28;20181;-75
2020/12/06 05:55:22;;;;;;;19.02;13.00;;;2.50;99.90;;;;;;5016751;28;20540;-75
2020/12/06 05:57:48;;;;;;;19.33;13.00;;;2.50;99.90;;;;;;5016005;28;20182;-75
2020/12/06 06:00:14;;;;;;;19.37;13.10;;;2.50;99.90;;;;;;5016960;28;20413;-75
2020/12/06 06:02:46;;;;;;;19.20;13.02;;;2.50;99.90;;;;;;5016960;28;20180;-76
2020/12/06 06:05:20;;;;;;;24.45;14.82;;;2.50;99.90;;;;;;5016355;28;20194;-75
2020/12/06 06:07:48;;;;;;;21.08;13.52;;;2.50;99.90;;;;;;5016908;28;20200;-75
2020/12/06 06:10:18;;;;;;;19.83;13.75;;;2.50;99.90;;;;;;5015566;28;20175;-75
2020/12/06 06:12:56;;;;;;;22.90;15.52;;;2.50;99.90;;;;;;5016742;28;20190;-75
2020/12/06 06:15:22;;;;;;;22.40;15.48;;;2.50;99.90;;;;;;5015044;28;20538;-75
2020/12/06 06:17:50;;;;;;;20.40;14.18;;;2.50;99.90;;;;;;5016741;28;20189;-75
2020/12/06 06:20:15;;;;;;;26.15;16.38;;;2.50;99.90;;;;;;5016791;28;20199;-75
2020/12/06 06:22:45;;;;;;;23.73;14.93;;;2.60;99.90;;;;;;5016949;28;20657;-75
2020/12/06 06:25:12;;;;;;;25.20;16.15;;;2.60;99.90;;;;;;5016087;28;20263;-76
2020/12/06 06:27:39;;;;;;;21.23;15.00;;;2.60;99.90;;;;;;5016567;28;20214;-75
2020/12/06 06:30:10;;;;;;;21.65;14.75;;;2.70;99.90;;;;;;5016506;28;20208;-75
2020/12/06 06:32:37;;;;;;;21.52;15.13;;;2.70;99.90;;;;;;5016598;28;20243;-76
2020/12/06 06:35:05;;;;;;;19.73;14.45;;;2.70;99.90;;;;;;5016019;28;20240;-76
2020/12/06 06:37:33;;;;;;;21.58;15.00;;;2.70;99.90;;;;;;5016275;28;20176;-76
2020/12/06 06:40:01;;;;;;;22.42;14.23;;;2.70;99.90;;;;;;5016145;28;20523;-76
2020/12/06 06:42:29;;;;;;;20.95;14.45;;;2.70;99.90;;;;;;5016159;28;20189;-76
2020/12/06 06:45:03;;;;;;;20.63;14.70;;;2.70;99.90;;;;;;5015685;28;20210;-78
2020/12/06 06:47:29;;;;;;;23.60;15.45;;;2.70;99.90;;;;;;5016093;28;20177;-76
2020/12/06 06:49:56;;;;;;;21.23;14.13;;;2.70;99.90;;;;;;5015955;28;20177;-76
2020/12/06 06:52:24;;;;;;;28.63;16.25;;;2.80;99.90;;;;;;5016030;28;20493;-76
2020/12/06 06:54:51;;;;;;;23.05;15.98;;;2.80;99.90;;;;;;5014425;28;20720;-76
2020/12/06 06:57:22;;;;;;;22.05;15.02;;;2.70;99.90;;;;;;5015718;28;20181;-76
2020/12/06 06:59:55;;;;;;;21.95;14.32;;;2.70;99.90;;;;;;5015997;28;20308;-76
2020/12/06 07:02:40;;;;;;;22.13;15.75;;;2.70;99.90;;;;;;5014377;28;20198;-76
2020/12/06 07:05:11;;;;;;;22.20;15.57;;;2.80;99.90;;;;;;5015425;28;20196;-77
2020/12/06 07:07:49;;;;;;;25.23;14.85;;;2.80;99.90;;;;;;5015835;28;20178;-76
2020/12/06 07:10:18;;;;;;;23.67;16.48;;;2.80;99.90;;;;;;5016319;28;20254;-76
2020/12/06 07:12:47;;;;;;;20.35;14.60;;;2.70;99.90;;;;;;5016210;28;20262;-76
2020/12/06 07:15:14;;;;;;;26.73;16.13;;;2.70;99.90;;;;;;5015205;28;20244;-76
2020/12/06 07:17:40;;;;;;;22.58;16.80;;;2.90;99.90;;;;;;5015711;28;20179;-76
2020/12/06 07:20:12;;;;;;;26.10;17.58;;;2.70;99.90;;;;;;5015879;28;20181;-75
2020/12/06 07:22:37;;;;;;;21.60;16.15;;;2.60;99.90;;;;;;5015640;28;20449;-75
2020/12/06 07:25:05;;;;;;;26.97;18.70;;;2.50;99.90;;;;;;5015127;28;20272;-76
2020/12/06 07:27:31;;;;;;;22.63;15.90;;;2.50;99.90;;;;;;5015365;28;20420;-76
2020/12/06 07:29:57;;;;;;;23.70;15.70;;;2.50;99.90;;;;;;5015334;28;20171;-76
2020/12/06 07:32:23;;;;;;;23.97;15.73;;;2.50;99.90;;;;;;5015419;28;20176;-75
2020/12/06 07:34:49;;;;;;;23.75;15.10;;;2.40;99.90;;;;;;5015091;28;20200;-76
2020/12/06 07:37:15;;;;;;;21.20;14.90;;;2.40;99.90;;;;;;5015441;28;20303;-76
2020/12/06 07:39:45;;;;;;;20.35;14.10;;;2.40;99.90;;;;;;5015262;28;20181;-76
2020/12/06 07:42:18;;;;;;;21.10;15.65;;;2.40;99.90;;;;;;5015168;28;20216;-76
2020/12/06 07:44:48;;;;;;;23.50;16.23;;;2.40;99.90;;;;;;5014907;28;20332;-76
2020/12/06 07:47:15;;;;;;;21.35;16.30;;;2.50;99.90;;;;;;5014920;28;20190;-76
2020/12/06 07:49:46;;;;;;;26.77;17.60;;;2.50;99.90;;;;;;5013804;28;20201;-76
2020/12/06 07:52:35;;;;;;;23.90;16.63;;;2.50;99.90;;;;;;5014944;28;20173;-75
2020/12/06 07:55:07;;;;;;;26.15;17.30;;;2.50;99.90;;;;;;5014541;28;20221;-76
2020/12/06 07:57:45;;;;;;;23.67;17.05;;;2.50;99.90;;;;;;5014766;28;20538;-76
2020/12/06 08:00:22;;;;;;;27.33;18.25;;;2.50;99.90;;;;;;5014671;28;20170;-76
2020/12/06 08:02:54;;;;;;;24.52;17.92;;;2.50;99.90;;;;;;5015264;28;20196;-76
2020/12/06 08:05:23;;;;;;;26.27;16.48;;;2.60;99.90;;;;;;5014396;28;20222;-76
2020/12/06 08:08:10;;;;;;;23.63;16.38;;;2.60;99.90;;;;;;5014572;28;20167;-76
2020/12/06 08:10:39;;;;;;;27.20;18.52;;;2.60;99.90;;;;;;5014719;28;20197;-75
2020/12/06 08:13:10;;;;;;;27.23;15.55;;;2.50;99.90;;;;;;5014394;28;20545;-76
2020/12/06 08:15:36;;;;;;;28.13;17.17;;;2.50;99.90;;;;;;5012896;28;20674;-76
2020/12/06 08:18:10;;;;;;;24.83;15.57;;;2.50;99.90;;;;;;5014326;28;20244;-75
2020/12/06 08:20:36;;;;;;;22.83;16.00;;;2.50;99.90;;;;;;5014288;28;20455;-75
2020/12/06 08:23:02;;;;;;;25.33;17.07;;;2.60;99.90;;;;;;5014562;28;20182;-75
2020/12/06 08:25:33;;;;;;;22.17;16.55;;;2.60;99.90;;;;;;5014176;28;20224;-75
2020/12/06 08:28:01;;;;;;;25.20;17.35;;;2.70;99.90;;;;;;5014530;28;20179;-76
2020/12/06 08:30:29;;;;;;;25.35;17.52;;;2.70;99.90;;;;;;5014300;28;20178;-75
2020/12/06 08:32:56;;;;;;;25.27;18.48;;;2.70;99.90;;;;;;5014383;28;20227;-75
2020/12/06 08:35:36;;;;;;;28.33;18.48;;;2.70;99.90;;;;;;5013890;28;20647;-75
2020/12/06 08:38:23;;;;;;;24.00;17.23;;;2.90;99.90;;;;;;5014189;28;20177;-75
2020/12/06 08:41:07;;;;;;;28.92;17.55;;;3.00;99.90;;;;;;5014175;28;20200;-76
2020/12/06 08:43:49;;;;;;;32.70;19.52;;;3.00;99.90;;;;;;5014033;28;20198;-76
2020/12/06 08:46:17;;;;;;;26.67;19.77;;;3.00;99.90;;;;;;5014118;28;20221;-75
2020/12/06 08:48:44;;;;;;;30.33;23.08;;;3.10;99.90;;;;;;5014065;28;20167;-75
2020/12/06 08:51:32;;;;;;;31.88;21.90;;;3.20;99.90;;;;;;5014027;28;20204;-76
2020/12/06 08:54:00;;;;;;;31.45;20.70;;;3.20;99.90;;;;;;5012203;28;20181;-76
2020/12/06 08:56:36;;;;;;;27.95;18.73;;;3.20;99.90;;;;;;5012586;28;20213;-76
2020/12/06 08:59:07;;;;;;;28.63;21.33;;;3.30;99.90;;;;;;5013970;28;20223;-75
2020/12/06 09:01:45;;;;;;;30.60;20.83;;;3.30;99.90;;;;;;5013773;28;20209;-77
2020/12/06 09:04:10;;;;;;;31.75;19.98;;;3.50;99.90;;;;;;5013224;28;20200;-74
2020/12/06 09:06:38;;;;;;;30.83;20.63;;;3.30;99.90;;;;;;5013644;28;20254;-76
2020/12/06 09:09:03;;;;;;;29.15;20.17;;;3.30;99.90;;;;;;5013807;28;20587;-76
2020/12/06 09:11:29;;;;;;;32.00;19.40;;;3.40;99.90;;;;;;5014244;28;20237;-76
2020/12/06 09:13:55;;;;;;;31.53;20.60;;;3.50;99.90;;;;;;5013886;28;20439;-75
2020/12/06 09:16:20;;;;;;;31.63;21.53;;;3.60;99.90;;;;;;5014943;28;20178;-76
2020/12/06 09:18:46;;;;;;;31.37;22.23;;;3.70;99.90;;;;;;5015725;28;20179;-76
2020/12/06 09:21:12;;;;;;;34.03;22.67;;;3.50;99.90;;;;;;5015586;28;20213;-75
2020/12/06 09:23:38;;;;;;;29.03;18.87;;;3.70;99.90;;;;;;5013469;28;20253;-76
2020/12/06 09:26:04;;;;;;;30.97;21.30;;;3.50;99.90;;;;;;5012829;28;20201;-76
2020/12/06 09:28:31;;;;;;;31.15;21.65;;;3.70;99.90;;;;;;5013376;28;20446;-76
2020/12/06 09:30:57;;;;;;;31.92;21.08;;;3.60;99.90;;;;;;5013423;28;20203;-75
2020/12/06 09:33:23;;;;;;;28.50;21.33;;;3.70;99.90;;;;;;5013552;28;20177;-76
2020/12/06 09:35:50;;;;;;;32.63;21.13;;;3.70;99.90;;;;;;5013099;28;20201;-75
2020/12/06 09:38:16;;;;;;;30.67;20.52;;;3.70;99.90;;;;;;5013762;28;20867;-76
2020/12/06 09:40:42;;;;;;;34.13;22.90;;;3.60;99.90;;;;;;5013152;28;20232;-75
2020/12/06 09:43:08;;;;;;;32.75;22.50;;;3.70;99.90;;;;;;5013431;28;20181;-78
2020/12/06 09:45:34;;;;;;;37.10;23.10;;;3.80;99.90;;;;;;5012931;28;20260;-75
2020/12/06 09:48:00;;;;;;;32.03;22.45;;;3.80;99.90;;;;;;5013383;28;20582;-77
2020/12/06 09:50:25;;;;;;;33.88;22.52;;;3.80;99.90;;;;;;5013143;28;20242;-76
2020/12/06 09:52:51;;;;;;;33.17;23.20;;;3.70;99.90;;;;;;5013042;28;20185;-76
2020/12/06 09:55:17;;;;;;;34.03;23.77;;;3.80;99.90;;;;;;5012897;28;20222;-78
2020/12/06 09:57:42;;;;;;;32.60;22.90;;;3.80;99.90;;;;;;5013338;28;20203;-77
2020/12/06 10:00:08;;;;;;;33.93;22.60;;;3.90;99.90;;;;;;5013084;28;20175;-77
2020/12/06 10:02:34;;;;;;;35.00;23.17;;;3.90;99.90;;;;;;5012998;28;20175;-75
2020/12/06 10:05:00;;;;;;;35.50;24.70;;;4.10;99.90;;;;;;5012816;28;20452;-75
2020/12/06 10:07:25;;;;;;;33.63;23.90;;;4.30;99.90;;;;;;5013072;28;20639;-75
2020/12/06 10:09:52;;;;;;;35.47;26.43;;;4.40;99.90;;;;;;5013032;28;20620;-77
2020/12/06 10:12:18;;;;;;;36.60;23.65;;;4.40;99.90;;;;;;5013073;28;20175;-75
2020/12/06 10:14:44;;;;;;;28.00;21.23;;;4.50;99.90;;;;;;5012210;28;20198;-75
2020/12/06 10:17:10;;;;;;;29.80;21.20;;;4.30;99.90;;;;;;5012928;28;20183;-76
2020/12/06 10:19:36;;;;;;;26.10;19.17;;;4.40;99.90;;;;;;5011895;28;20171;-76
2020/12/06 10:22:02;;;;;;;23.80;17.20;;;4.70;99.90;;;;;;5013036;28;20566;-76
2020/12/06 10:24:27;;;;;;;21.63;15.23;;;4.80;99.90;;;;;;5012635;28;20261;-75
2020/12/06 10:26:53;;;;;;;41.93;16.37;;;4.80;99.90;;;;;;5013058;28;20639;-75
2020/12/06 10:29:20;;;;;;;22.37;14.57;;;4.80;99.90;;;;;;5013226;28;20183;-77
2020/12/06 10:31:55;;;;;;;22.23;15.32;;;4.90;99.90;;;;;;5013148;28;20918;-74
2020/12/06 10:34:21;;;;;;;21.80;15.90;;;4.90;99.90;;;;;;5012892;28;20202;-73
2020/12/06 10:36:58;;;;;;;20.42;13.82;;;5.00;99.90;;;;;;5013931;28;20182;-74
2020/12/06 10:39:25;;;;;;;17.45;13.88;;;5.00;99.90;;;;;;5016421;28;20174;-75
2020/12/06 10:41:51;;;;;;;21.00;14.88;;;5.00;99.90;;;;;;5016372;28;20245;-77
2020/12/06 10:44:18;;;;;;;22.63;14.20;;;5.10;99.90;;;;;;5016126;28;20596;-76
2020/12/06 10:46:44;;;;;;;20.60;15.32;;;5.00;99.90;;;;;;5015378;28;20620;-76
2020/12/06 10:49:11;;;;;;;25.52;16.25;;;5.10;99.90;;;;;;5016457;28;21085;-76
2020/12/06 10:51:44;;;;;;;23.73;16.50;;;5.10;99.90;;;;;;5016758;28;20668;-75
2020/12/06 10:54:11;;;;;;;23.88;16.20;;;5.20;99.90;;;;;;5015900;28;20206;-76
2020/12/06 10:56:37;;;;;;;21.88;16.08;;;5.20;99.90;;;;;;5016209;28;20213;-76
2020/12/06 10:59:04;;;;;;;20.73;14.25;;;5.30;99.90;;;;;;5016036;28;20183;-74
2020/12/06 11:01:31;;;;;;;17.75;13.93;;;5.30;99.90;;;;;;5015955;28;20613;-75
2020/12/06 11:04:01;;;;;;;21.52;14.60;;;5.20;99.90;;;;;;5014355;28;20319;-76
2020/12/06 11:06:26;;;;;;;19.98;14.52;;;5.30;99.90;;;;;;5015941;28;20164;-76
2020/12/06 11:08:52;;;;;;;23.43;14.87;;;5.20;99.90;;;;;;5015918;28;20205;-74
2020/12/06 11:11:20;;;;;;;19.60;13.93;;;5.20;99.90;;;;;;5015831;28;20546;-76
2020/12/06 11:13:46;;;;;;;20.55;14.52;;;5.30;99.90;;;;;;5015389;28;20417;-75
2020/12/06 11:16:19;;;;;;;25.35;16.30;;;5.40;99.90;;;;;;5016022;28;20183;-75
2020/12/06 11:18:46;;;;;;;22.58;15.15;;;5.40;99.90;;;;;;5015810;28;20182;-74
2020/12/06 11:21:16;;;;;;;24.90;15.80;;;5.30;99.90;;;;;;5015582;28;20205;-75
2020/12/06 11:23:42;;;;;;;25.08;14.82;;;5.30;99.90;;;;;;5015252;28;20183;-75
2020/12/06 11:26:08;;;;;;;18.67;13.23;;;5.20;99.90;;;;;;5015578;28;20174;-75
2020/12/06 11:28:34;;;;;;;19.07;15.03;;;5.30;99.90;;;;;;5014289;28;20232;-76
2020/12/06 11:30:59;;;;;;;18.87;13.83;;;5.30;99.90;;;;;;5014190;28;20436;-76
2020/12/06 11:33:25;;;;;;;21.43;13.90;;;5.30;99.90;;;;;;5015343;28;20448;-75
2020/12/06 11:35:51;;;;;;;18.70;13.90;;;5.30;99.90;;;;;;5014961;28;20633;-75
2020/12/06 11:38:16;;;;;;;25.43;13.27;;;5.40;99.90;;;;;;5015371;28;20174;-76
2020/12/06 11:40:43;;;;;;;20.17;13.43;;;5.40;99.90;;;;;;5015277;28;20213;-75
2020/12/06 11:43:09;;;;;;;18.08;14.63;;;5.40;99.90;;;;;;5015352;28;20634;-76
2020/12/06 11:45:36;;;;;;;16.95;13.80;;;5.20;99.90;;;;;;5013530;28;20225;-75
2020/12/06 11:48:02;;;;;;;19.30;14.00;;;5.10;99.90;;;;;;5014507;28;20171;-76
2020/12/06 11:50:28;;;;;;;19.50;14.98;;;5.10;99.90;;;;;;5014846;28;20268;-75
2020/12/06 11:52:53;;;;;;;18.97;14.70;;;5.10;99.90;;;;;;5015229;28;20211;-76
2020/12/06 11:55:19;;;;;;;19.17;14.67;;;5.20;99.90;;;;;;5014534;28;20274;-74
2020/12/06 11:57:45;;;;;;;19.92;14.57;;;5.10;99.90;;;;;;5014895;28;20186;-75
2020/12/06 12:00:11;;;;;;;23.53;14.73;;;5.10;99.90;;;;;;5014832;28;20174;-75
2020/12/06 12:02:36;;;;;;;19.13;14.13;;;5.00;99.90;;;;;;5014884;28;20273;-75
2020/12/06 12:05:03;;;;;;;21.20;14.97;;;4.90;99.90;;;;;;5014340;28;20244;-75
2020/12/06 12:07:28;;;;;;;19.77;15.57;;;4.80;99.90;;;;;;5014678;28;20198;-76
2020/12/06 12:09:54;;;;;;;20.57;14.50;;;4.80;99.90;;;;;;5014554;28;20245;-75
2020/12/06 12:12:20;;;;;;;20.57;16.40;;;4.80;99.90;;;;;;5014464;28;20225;-75
2020/12/06 12:14:45;;;;;;;23.30;16.60;;;4.80;99.90;;;;;;5014469;28;20203;-75
2020/12/06 12:17:11;;;;;;;22.43;16.13;;;4.80;99.90;;;;;;5014682;28;20187;-75
2020/12/06 12:19:45;;;;;;;20.50;15.30;;;4.90;99.90;;;;;;5014513;28;20609;-76
2020/12/06 12:22:11;;;;;;;18.65;15.55;;;4.90;99.90;;;;;;5014307;28;20202;-75
2020/12/06 12:24:37;;;;;;;18.27;15.07;;;4.90;99.90;;;;;;5014204;28;20561;-76
2020/12/06 12:27:03;;;;;;;21.67;16.50;;;4.80;99.90;;;;;;5014403;28;20214;-75
2020/12/06 12:29:28;;;;;;;27.60;16.47;;;4.80;99.90;;;;;;5014177;28;20176;-76
2020/12/06 12:31:54;;;;;;;24.63;16.53;;;4.70;99.90;;;;;;5014459;28;20759;-76
2020/12/06 12:34:20;;;;;;;19.05;14.55;;;4.70;99.90;;;;;;5014018;28;20568;-76
2020/12/06 12:36:46;;;;;;;21.85;16.63;;;4.60;99.90;;;;;;5014357;28;20185;-76